sensor_id;sensor_type;location;lat;lon;timestamp;P1;durP1;ratioP1;P2;durP2;ratioP2
7021;SDS011;3552;42.664;23.406;2022-07-17T00:00:43;5.60;;;3.10;;
7021;SDS011;3552;42.664;23.406;2022-07-17T00:03:13;3.23;;;2.93;;
7021;SDS011;3552;42.664;23.406;2022-07-17T00:05:44;4.40;;;2.63;;
7021;SDS011;3552;42.664;23.406;2022-07-17T00:08:11;5.37;;;3.07;;
7021;SDS011;3552;42.664;23.406;2022-07-17T00:10:41;5.80;;;3.30;;
7021;SDS011;3552;42.664;23.406;2022-07-17T00:13:09;9.23;;;3.20;;
7021;SDS011;3552;42.664;23.406;2022-07-17T00:15:36;3.83;;;3.03;;
7021;SDS011;3552;42.664;23.406;2022-07-17T00:18:04;8.07;;;3.23;;
7021;SDS011;3552;42.664;23.406;2022-07-17T00:20:32;6.23;;;3.30;;
7021;SDS011;3552;42.664;23.406;2022-07-17T00:23:02;5.87;;;3.20;;
7021;SDS011;3552;42.664;23.406;2022-07-17T00:25:31;5.20;;;3.17;;
7021;SDS011;3552;42.664;23.406;2022-07-17T00:27:58;3.07;;;2.77;;
7021;SDS011;3552;42.664;23.406;2022-07-17T00:30:25;3.43;;;2.77;;
7021;SDS011;3552;42.664;23.406;2022-07-17T00:32:52;5.93;;;3.13;;
7021;SDS011;3552;42.664;23.406;2022-07-17T00:35:20;7.47;;;3.40;;
7021;SDS011;3552;42.664;23.406;2022-07-17T00:37:47;5.60;;;3.33;;
7021;SDS011;3552;42.664;23.406;2022-07-17T00:40:19;5.03;;;2.90;;
7021;SDS011;3552;42.664;23.406;2022-07-17T00:42:49;4.50;;;2.60;;
7021;SDS011;3552;42.664;23.406;2022-07-17T00:45:18;3.37;;;2.70;;
7021;SDS011;3552;42.664;23.406;2022-07-17T00:47:51;5.47;;;2.70;;
7021;SDS011;3552;42.664;23.406;2022-07-17T00:50:21;17.23;;;3.20;;
7021;SDS011;3552;42.664;23.406;2022-07-17T00:52:49;5.93;;;3.20;;
7021;SDS011;3552;42.664;23.406;2022-07-17T00:55:18;6.83;;;3.00;;
7021;SDS011;3552;42.664;23.406;2022-07-17T00:57:47;4.77;;;3.00;;
7021;SDS011;3552;42.664;23.406;2022-07-17T01:00:17;5.07;;;2.37;;
7021;SDS011;3552;42.664;23.406;2022-07-17T01:02:46;2.83;;;2.63;;
7021;SDS011;3552;42.664;23.406;2022-07-17T01:05:15;7.03;;;3.20;;
7021;SDS011;3552;42.664;23.406;2022-07-17T01:07:43;3.43;;;2.80;;
7021;SDS011;3552;42.664;23.406;2022-07-17T01:10:11;5.33;;;2.80;;
7021;SDS011;3552;42.664;23.406;2022-07-17T01:12:42;9.03;;;2.87;;
7021;SDS011;3552;42.664;23.406;2022-07-17T01:15:11;6.40;;;2.70;;
7021;SDS011;3552;42.664;23.406;2022-07-17T01:17:40;4.50;;;3.00;;
7021;SDS011;3552;42.664;23.406;2022-07-17T01:20:10;3.37;;;3.07;;
7021;SDS011;3552;42.664;23.406;2022-07-17T01:22:43;4.70;;;2.87;;
7021;SDS011;3552;42.664;23.406;2022-07-17T01:25:13;5.10;;;3.20;;
7021;SDS011;3552;42.664;23.406;2022-07-17T01:27:41;5.43;;;2.50;;
7021;SDS011;3552;42.664;23.406;2022-07-17T01:30:10;5.27;;;3.10;;
7021;SDS011;3552;42.664;23.406;2022-07-17T01:32:40;6.20;;;3.20;;
7021;SDS011;3552;42.664;23.406;2022-07-17T01:35:09;10.00;;;3.77;;
7021;SDS011;3552;42.664;23.406;2022-07-17T01:37:39;6.03;;;2.73;;
7021;SDS011;3552;42.664;23.406;2022-07-17T01:40:09;3.47;;;3.17;;
7021;SDS011;3552;42.664;23.406;2022-07-17T01:42:39;5.10;;;3.10;;
7021;SDS011;3552;42.664;23.406;2022-07-17T01:45:09;6.53;;;3.70;;
7021;SDS011;3552;42.664;23.406;2022-07-17T01:47:36;4.83;;;3.80;;
7021;SDS011;3552;42.664;23.406;2022-07-17T01:50:04;10.90;;;3.87;;
7021;SDS011;3552;42.664;23.406;2022-07-17T01:52:34;6.97;;;4.03;;
7021;SDS011;3552;42.664;23.406;2022-07-17T01:55:02;6.33;;;3.90;;
7021;SDS011;3552;42.664;23.406;2022-07-17T01:57:33;12.80;;;4.93;;
7021;SDS011;3552;42.664;23.406;2022-07-17T02:00:03;8.10;;;4.80;;
7021;SDS011;3552;42.664;23.406;2022-07-17T02:02:32;5.70;;;4.50;;
7021;SDS011;3552;42.664;23.406;2022-07-17T02:04:59;11.03;;;4.60;;
7021;SDS011;3552;42.664;23.406;2022-07-17T02:07:27;9.17;;;5.17;;
7021;SDS011;3552;42.664;23.406;2022-07-17T02:09:56;8.23;;;4.37;;
7021;SDS011;3552;42.664;23.406;2022-07-17T02:12:23;6.10;;;4.10;;
7021;SDS011;3552;42.664;23.406;2022-07-17T02:14:52;6.73;;;4.60;;
7021;SDS011;3552;42.664;23.406;2022-07-17T02:17:20;5.80;;;4.97;;
7021;SDS011;3552;42.664;23.406;2022-07-17T02:19:47;5.93;;;4.67;;
7021;SDS011;3552;42.664;23.406;2022-07-17T02:22:15;5.60;;;4.90;;
7021;SDS011;3552;42.664;23.406;2022-07-17T02:24:41;7.83;;;4.73;;
7021;SDS011;3552;42.664;23.406;2022-07-17T02:27:09;6.93;;;4.73;;
7021;SDS011;3552;42.664;23.406;2022-07-17T02:29:36;5.97;;;4.97;;
7021;SDS011;3552;42.664;23.406;2022-07-17T02:32:07;5.33;;;4.83;;
7021;SDS011;3552;42.664;23.406;2022-07-17T02:34:34;8.27;;;4.83;;
7021;SDS011;3552;42.664;23.406;2022-07-17T02:37:02;8.47;;;5.23;;
7021;SDS011;3552;42.664;23.406;2022-07-17T02:39:29;9.73;;;5.20;;
7021;SDS011;3552;42.664;23.406;2022-07-17T02:41:56;6.37;;;5.27;;
7021;SDS011;3552;42.664;23.406;2022-07-17T02:44:23;8.80;;;5.80;;
7021;SDS011;3552;42.664;23.406;2022-07-17T02:46:51;6.30;;;5.40;;
7021;SDS011;3552;42.664;23.406;2022-07-17T02:49:20;7.43;;;5.30;;
7021;SDS011;3552;42.664;23.406;2022-07-17T02:51:47;10.90;;;5.73;;
7021;SDS011;3552;42.664;23.406;2022-07-17T02:54:14;13.17;;;5.53;;
7021;SDS011;3552;42.664;23.406;2022-07-17T02:56:41;11.63;;;6.17;;
7021;SDS011;3552;42.664;23.406;2022-07-17T02:59:08;10.70;;;6.33;;
7021;SDS011;3552;42.664;23.406;2022-07-17T03:01:37;8.07;;;5.87;;
7021;SDS011;3552;42.664;23.406;2022-07-17T03:04:04;7.33;;;5.50;;
7021;SDS011;3552;42.664;23.406;2022-07-17T03:06:33;8.13;;;5.50;;
7021;SDS011;3552;42.664;23.406;2022-07-17T03:09:02;9.17;;;5.50;;
7021;SDS011;3552;42.664;23.406;2022-07-17T03:11:29;8.37;;;5.30;;
7021;SDS011;3552;42.664;23.406;2022-07-17T03:13:59;13.00;;;5.40;;
7021;SDS011;3552;42.664;23.406;2022-07-17T03:16:27;11.27;;;5.60;;
7021;SDS011;3552;42.664;23.406;2022-07-17T03:18:54;10.27;;;5.33;;
7021;SDS011;3552;42.664;23.406;2022-07-17T03:21:21;9.40;;;5.67;;
7021;SDS011;3552;42.664;23.406;2022-07-17T03:23:51;9.33;;;5.83;;
7021;SDS011;3552;42.664;23.406;2022-07-17T03:26:20;8.30;;;4.90;;
7021;SDS011;3552;42.664;23.406;2022-07-17T03:28:47;4.33;;;3.93;;
7021;SDS011;3552;42.664;23.406;2022-07-17T03:31:15;9.43;;;4.40;;
7021;SDS011;3552;42.664;23.406;2022-07-17T03:33:42;3.77;;;3.33;;
7021;SDS011;3552;42.664;23.406;2022-07-17T03:36:11;5.77;;;3.90;;
7021;SDS011;3552;42.664;23.406;2022-07-17T03:38:38;5.07;;;3.50;;
7021;SDS011;3552;42.664;23.406;2022-07-17T03:41:07;8.47;;;3.60;;
7021;SDS011;3552;42.664;23.406;2022-07-17T03:43:34;4.90;;;3.47;;
7021;SDS011;3552;42.664;23.406;2022-07-17T03:46:01;5.40;;;3.33;;
7021;SDS011;3552;42.664;23.406;2022-07-17T03:48:29;3.90;;;2.97;;
7021;SDS011;3552;42.664;23.406;2022-07-17T03:50:56;5.00;;;3.40;;
7021;SDS011;3552;42.664;23.406;2022-07-17T03:53:23;7.03;;;3.50;;
7021;SDS011;3552;42.664;23.406;2022-07-17T03:55:50;5.80;;;3.47;;
7021;SDS011;3552;42.664;23.406;2022-07-17T03:58:18;7.80;;;3.10;;
7021;SDS011;3552;42.664;23.406;2022-07-17T04:00:45;4.40;;;3.20;;
7021;SDS011;3552;42.664;23.406;2022-07-17T04:03:14;5.43;;;2.77;;
7021;SDS011;3552;42.664;23.406;2022-07-17T04:05:41;3.97;;;3.07;;
7021;SDS011;3552;42.664;23.406;2022-07-17T04:08:08;4.30;;;3.13;;
7021;SDS011;3552;42.664;23.406;2022-07-17T04:10:37;4.63;;;3.00;;
7021;SDS011;3552;42.664;23.406;2022-07-17T04:13:05;5.23;;;2.97;;
7021;SDS011;3552;42.664;23.406;2022-07-17T04:15:33;5.27;;;2.93;;
7021;SDS011;3552;42.664;23.406;2022-07-17T04:18:17;8.77;;;3.37;;
7021;SDS011;3552;42.664;23.406;2022-07-17T04:20:46;5.27;;;3.00;;
7021;SDS011;3552;42.664;23.406;2022-07-17T04:23:15;8.20;;;3.23;;
7021;SDS011;3552;42.664;23.406;2022-07-17T04:25:43;4.33;;;2.73;;
7021;SDS011;3552;42.664;23.406;2022-07-17T04:28:12;3.10;;;2.80;;
7021;SDS011;3552;42.664;23.406;2022-07-17T04:30:42;4.37;;;2.70;;
7021;SDS011;3552;42.664;23.406;2022-07-17T04:33:09;3.23;;;2.40;;
7021;SDS011;3552;42.664;23.406;2022-07-17T04:35:36;3.33;;;2.70;;
7021;SDS011;3552;42.664;23.406;2022-07-17T04:38:05;6.23;;;3.00;;
7021;SDS011;3552;42.664;23.406;2022-07-17T04:40:34;5.10;;;2.67;;
7021;SDS011;3552;42.664;23.406;2022-07-17T04:43:02;6.73;;;3.27;;
7021;SDS011;3552;42.664;23.406;2022-07-17T04:45:30;7.93;;;3.30;;
7021;SDS011;3552;42.664;23.406;2022-07-17T04:47:59;4.87;;;3.03;;
7021;SDS011;3552;42.664;23.406;2022-07-17T04:50:26;3.60;;;2.70;;
7021;SDS011;3552;42.664;23.406;2022-07-17T04:52:53;5.17;;;2.70;;
7021;SDS011;3552;42.664;23.406;2022-07-17T04:55:22;6.10;;;3.27;;
7021;SDS011;3552;42.664;23.406;2022-07-17T04:57:50;6.53;;;2.83;;
7021;SDS011;3552;42.664;23.406;2022-07-17T05:00:19;4.00;;;3.00;;
7021;SDS011;3552;42.664;23.406;2022-07-17T05:02:46;4.00;;;3.03;;
7021;SDS011;3552;42.664;23.406;2022-07-17T05:05:15;6.10;;;2.93;;
7021;SDS011;3552;42.664;23.406;2022-07-17T05:07:43;5.80;;;3.10;;
7021;SDS011;3552;42.664;23.406;2022-07-17T05:10:09;4.10;;;2.60;;
7021;SDS011;3552;42.664;23.406;2022-07-17T05:12:36;5.73;;;3.07;;
7021;SDS011;3552;42.664;23.406;2022-07-17T05:15:06;6.97;;;3.03;;
7021;SDS011;3552;42.664;23.406;2022-07-17T05:17:34;3.30;;;2.70;;
7021;SDS011;3552;42.664;23.406;2022-07-17T05:20:04;6.13;;;2.80;;
7021;SDS011;3552;42.664;23.406;2022-07-17T05:22:35;5.13;;;2.87;;
7021;SDS011;3552;42.664;23.406;2022-07-17T05:25:03;4.77;;;2.77;;
7021;SDS011;3552;42.664;23.406;2022-07-17T05:27:32;3.30;;;2.50;;
7021;SDS011;3552;42.664;23.406;2022-07-17T05:29:59;7.67;;;2.57;;
7021;SDS011;3552;42.664;23.406;2022-07-17T05:32:26;3.93;;;2.70;;
7021;SDS011;3552;42.664;23.406;2022-07-17T05:34:55;4.00;;;2.60;;
7021;SDS011;3552;42.664;23.406;2022-07-17T05:37:22;3.03;;;2.73;;
7021;SDS011;3552;42.664;23.406;2022-07-17T05:39:52;5.27;;;2.77;;
7021;SDS011;3552;42.664;23.406;2022-07-17T05:42:20;3.23;;;2.80;;
7021;SDS011;3552;42.664;23.406;2022-07-17T05:44:47;3.40;;;2.53;;
7021;SDS011;3552;42.664;23.406;2022-07-17T05:47:15;3.50;;;2.80;;
7021;SDS011;3552;42.664;23.406;2022-07-17T05:49:42;4.87;;;2.77;;
7021;SDS011;3552;42.664;23.406;2022-07-17T05:52:10;2.80;;;2.53;;
7021;SDS011;3552;42.664;23.406;2022-07-17T05:54:37;3.97;;;2.30;;
7021;SDS011;3552;42.664;23.406;2022-07-17T05:57:07;4.37;;;2.70;;
7021;SDS011;3552;42.664;23.406;2022-07-17T05:59:34;5.53;;;2.70;;
7021;SDS011;3552;42.664;23.406;2022-07-17T06:02:01;3.87;;;2.60;;
7021;SDS011;3552;42.664;23.406;2022-07-17T06:04:28;3.97;;;2.80;;
7021;SDS011;3552;42.664;23.406;2022-07-17T06:06:56;4.37;;;2.93;;
7021;SDS011;3552;42.664;23.406;2022-07-17T06:09:27;5.17;;;2.83;;
7021;SDS011;3552;42.664;23.406;2022-07-17T06:11:56;5.03;;;2.80;;
7021;SDS011;3552;42.664;23.406;2022-07-17T06:14:25;4.07;;;2.93;;
7021;SDS011;3552;42.664;23.406;2022-07-17T06:16:52;4.33;;;2.80;;
7021;SDS011;3552;42.664;23.406;2022-07-17T06:19:20;5.27;;;2.90;;
7021;SDS011;3552;42.664;23.406;2022-07-17T06:21:47;4.23;;;2.60;;
7021;SDS011;3552;42.664;23.406;2022-07-17T06:24:15;3.33;;;2.40;;
7021;SDS011;3552;42.664;23.406;2022-07-17T06:26:42;7.27;;;3.10;;
7021;SDS011;3552;42.664;23.406;2022-07-17T06:29:12;8.67;;;3.20;;
7021;SDS011;3552;42.664;23.406;2022-07-17T06:31:41;8.20;;;2.80;;
7021;SDS011;3552;42.664;23.406;2022-07-17T06:34:08;7.17;;;2.70;;
7021;SDS011;3552;42.664;23.406;2022-07-17T06:36:36;3.67;;;2.77;;
7021;SDS011;3552;42.664;23.406;2022-07-17T06:39:04;4.13;;;3.30;;
7021;SDS011;3552;42.664;23.406;2022-07-17T06:41:31;5.17;;;3.13;;
7021;SDS011;3552;42.664;23.406;2022-07-17T06:43:59;6.47;;;3.10;;
7021;SDS011;3552;42.664;23.406;2022-07-17T06:46:26;4.50;;;2.80;;
7021;SDS011;3552;42.664;23.406;2022-07-17T06:48:55;2.70;;;2.43;;
7021;SDS011;3552;42.664;23.406;2022-07-17T06:51:22;3.47;;;2.80;;
7021;SDS011;3552;42.664;23.406;2022-07-17T06:53:49;6.33;;;3.27;;
7021;SDS011;3552;42.664;23.406;2022-07-17T06:56:17;3.70;;;2.63;;
7021;SDS011;3552;42.664;23.406;2022-07-17T06:58:45;3.37;;;3.03;;
7021;SDS011;3552;42.664;23.406;2022-07-17T07:01:13;2.90;;;2.70;;
7021;SDS011;3552;42.664;23.406;2022-07-17T07:03:41;5.83;;;2.90;;
7021;SDS011;3552;42.664;23.406;2022-07-17T07:06:11;5.43;;;3.00;;
7021;SDS011;3552;42.664;23.406;2022-07-17T07:08:38;3.70;;;3.10;;
7021;SDS011;3552;42.664;23.406;2022-07-17T07:11:06;4.87;;;3.17;;
7021;SDS011;3552;42.664;23.406;2022-07-17T07:13:34;6.50;;;2.83;;
7021;SDS011;3552;42.664;23.406;2022-07-17T07:16:02;3.43;;;2.73;;
7021;SDS011;3552;42.664;23.406;2022-07-17T07:18:30;5.30;;;3.03;;
7021;SDS011;3552;42.664;23.406;2022-07-17T07:20:59;7.43;;;3.00;;
7021;SDS011;3552;42.664;23.406;2022-07-17T07:23:30;5.93;;;2.83;;
7021;SDS011;3552;42.664;23.406;2022-07-17T07:25:57;6.33;;;3.13;;
7021;SDS011;3552;42.664;23.406;2022-07-17T07:28:25;5.53;;;3.10;;
7021;SDS011;3552;42.664;23.406;2022-07-17T07:31:01;3.27;;;2.97;;
7021;SDS011;3552;42.664;23.406;2022-07-17T07:33:30;5.20;;;3.00;;
7021;SDS011;3552;42.664;23.406;2022-07-17T07:35:57;4.57;;;3.03;;
7021;SDS011;3552;42.664;23.406;2022-07-17T07:38:25;3.47;;;3.10;;
7021;SDS011;3552;42.664;23.406;2022-07-17T07:40:55;3.20;;;2.90;;
7021;SDS011;3552;42.664;23.406;2022-07-17T07:43:22;3.67;;;2.67;;
7021;SDS011;3552;42.664;23.406;2022-07-17T07:45:49;4.60;;;3.00;;
7021;SDS011;3552;42.664;23.406;2022-07-17T07:48:18;4.33;;;2.83;;
7021;SDS011;3552;42.664;23.406;2022-07-17T07:50:47;7.00;;;3.00;;
7021;SDS011;3552;42.664;23.406;2022-07-17T07:53:15;6.83;;;3.37;;
7021;SDS011;3552;42.664;23.406;2022-07-17T07:55:44;3.77;;;2.80;;
7021;SDS011;3552;42.664;23.406;2022-07-17T07:58:12;8.50;;;3.13;;
7021;SDS011;3552;42.664;23.406;2022-07-17T08:00:42;5.70;;;3.07;;
7021;SDS011;3552;42.664;23.406;2022-07-17T08:03:11;3.80;;;2.67;;
7021;SDS011;3552;42.664;23.406;2022-07-17T08:05:39;3.77;;;2.80;;
7021;SDS011;3552;42.664;23.406;2022-07-17T08:08:07;5.90;;;3.00;;
7021;SDS011;3552;42.664;23.406;2022-07-17T08:10:35;3.33;;;3.00;;
7021;SDS011;3552;42.664;23.406;2022-07-17T08:13:03;6.33;;;2.70;;
7021;SDS011;3552;42.664;23.406;2022-07-17T08:15:32;5.63;;;2.90;;
7021;SDS011;3552;42.664;23.406;2022-07-17T08:18:00;5.90;;;3.40;;
7021;SDS011;3552;42.664;23.406;2022-07-17T08:20:27;7.47;;;3.60;;
7021;SDS011;3552;42.664;23.406;2022-07-17T08:22:54;5.00;;;3.10;;
7021;SDS011;3552;42.664;23.406;2022-07-17T08:25:23;4.33;;;2.90;;
7021;SDS011;3552;42.664;23.406;2022-07-17T08:27:52;6.67;;;2.93;;
7021;SDS011;3552;42.664;23.406;2022-07-17T08:30:19;5.30;;;2.80;;
7021;SDS011;3552;42.664;23.406;2022-07-17T08:32:48;4.87;;;2.87;;
7021;SDS011;3552;42.664;23.406;2022-07-17T08:35:16;4.67;;;2.80;;
7021;SDS011;3552;42.664;23.406;2022-07-17T08:37:49;5.00;;;2.80;;
7021;SDS011;3552;42.664;23.406;2022-07-17T08:40:20;9.30;;;2.87;;
7021;SDS011;3552;42.664;23.406;2022-07-17T08:42:52;3.90;;;3.00;;
7021;SDS011;3552;42.664;23.406;2022-07-17T08:45:19;6.77;;;2.77;;
7021;SDS011;3552;42.664;23.406;2022-07-17T08:47:48;4.63;;;2.87;;
7021;SDS011;3552;42.664;23.406;2022-07-17T08:50:18;3.73;;;2.67;;
7021;SDS011;3552;42.664;23.406;2022-07-17T08:52:47;2.80;;;2.60;;
7021;SDS011;3552;42.664;23.406;2022-07-17T08:55:15;4.03;;;2.97;;
7021;SDS011;3552;42.664;23.406;2022-07-17T08:57:44;4.23;;;2.90;;
7021;SDS011;3552;42.664;23.406;2022-07-17T09:00:15;4.17;;;3.20;;
7021;SDS011;3552;42.664;23.406;2022-07-17T09:02:55;3.43;;;2.93;;
7021;SDS011;3552;42.664;23.406;2022-07-17T09:05:23;3.53;;;2.90;;
7021;SDS011;3552;42.664;23.406;2022-07-17T09:07:52;3.77;;;2.77;;
7021;SDS011;3552;42.664;23.406;2022-07-17T09:10:29;2.87;;;2.57;;
7021;SDS011;3552;42.664;23.406;2022-07-17T09:12:57;4.27;;;2.77;;
7021;SDS011;3552;42.664;23.406;2022-07-17T09:15:26;6.33;;;3.17;;
7021;SDS011;3552;42.664;23.406;2022-07-17T09:17:55;3.37;;;2.47;;
7021;SDS011;3552;42.664;23.406;2022-07-17T09:20:22;3.43;;;3.13;;
7021;SDS011;3552;42.664;23.406;2022-07-17T09:22:56;5.17;;;2.93;;
7021;SDS011;3552;42.664;23.406;2022-07-17T09:25:31;3.17;;;2.77;;
7021;SDS011;3552;42.664;23.406;2022-07-17T09:28:02;2.70;;;2.50;;
7021;SDS011;3552;42.664;23.406;2022-07-17T09:30:31;4.70;;;2.60;;
7021;SDS011;3552;42.664;23.406;2022-07-17T09:33:02;6.90;;;2.80;;
7021;SDS011;3552;42.664;23.406;2022-07-17T09:35:33;3.70;;;2.90;;
7021;SDS011;3552;42.664;23.406;2022-07-17T09:38:01;2.97;;;2.40;;
7021;SDS011;3552;42.664;23.406;2022-07-17T09:40:28;4.53;;;2.63;;
7021;SDS011;3552;42.664;23.406;2022-07-17T09:43:13;4.00;;;2.63;;
7021;SDS011;3552;42.664;23.406;2022-07-17T09:45:40;3.67;;;2.80;;
7021;SDS011;3552;42.664;23.406;2022-07-17T09:48:10;3.60;;;2.73;;
7021;SDS011;3552;42.664;23.406;2022-07-17T09:50:38;2.80;;;2.57;;
7021;SDS011;3552;42.664;23.406;2022-07-17T09:53:08;5.30;;;2.70;;
7021;SDS011;3552;42.664;23.406;2022-07-17T09:55:39;6.30;;;2.87;;
7021;SDS011;3552;42.664;23.406;2022-07-17T09:58:09;3.30;;;2.83;;
7021;SDS011;3552;42.664;23.406;2022-07-17T10:00:39;6.53;;;2.60;;
7021;SDS011;3552;42.664;23.406;2022-07-17T10:03:06;3.67;;;2.70;;
7021;SDS011;3552;42.664;23.406;2022-07-17T10:05:36;3.67;;;2.80;;
7021;SDS011;3552;42.664;23.406;2022-07-17T10:08:04;5.13;;;2.60;;
7021;SDS011;3552;42.664;23.406;2022-07-17T10:10:33;10.77;;;2.90;;
7021;SDS011;3552;42.664;23.406;2022-07-17T10:13:01;4.83;;;2.80;;
7021;SDS011;3552;42.664;23.406;2022-07-17T10:15:29;10.83;;;2.47;;
7021;SDS011;3552;42.664;23.406;2022-07-17T10:18:03;5.93;;;2.60;;
7021;SDS011;3552;42.664;23.406;2022-07-17T10:20:31;6.50;;;2.70;;
7021;SDS011;3552;42.664;23.406;2022-07-17T10:23:10;8.43;;;2.87;;
7021;SDS011;3552;42.664;23.406;2022-07-17T10:25:38;3.67;;;2.87;;
7021;SDS011;3552;42.664;23.406;2022-07-17T10:28:07;3.83;;;2.73;;
7021;SDS011;3552;42.664;23.406;2022-07-17T10:30:35;6.20;;;2.70;;
7021;SDS011;3552;42.664;23.406;2022-07-17T10:33:07;8.20;;;2.70;;
7021;SDS011;3552;42.664;23.406;2022-07-17T10:35:43;4.93;;;2.60;;
7021;SDS011;3552;42.664;23.406;2022-07-17T10:38:14;5.07;;;2.60;;
7021;SDS011;3552;42.664;23.406;2022-07-17T10:40:41;3.00;;;2.60;;
7021;SDS011;3552;42.664;23.406;2022-07-17T10:43:10;3.00;;;2.80;;
7021;SDS011;3552;42.664;23.406;2022-07-17T10:45:38;3.27;;;2.73;;
7021;SDS011;3552;42.664;23.406;2022-07-17T10:48:23;4.00;;;3.07;;
7021;SDS011;3552;42.664;23.406;2022-07-17T10:50:53;10.63;;;2.97;;
7021;SDS011;3552;42.664;23.406;2022-07-17T10:56:09;3.13;;;2.67;;
7021;SDS011;3552;42.664;23.406;2022-07-17T10:58:40;3.87;;;2.63;;
7021;SDS011;3552;42.664;23.406;2022-07-17T11:01:09;3.53;;;3.00;;
7021;SDS011;3552;42.664;23.406;2022-07-17T11:03:42;6.70;;;3.93;;
7021;SDS011;3552;42.664;23.406;2022-07-17T11:06:18;3.80;;;2.70;;
7021;SDS011;3552;42.664;23.406;2022-07-17T11:08:49;3.83;;;2.60;;
7021;SDS011;3552;42.664;23.406;2022-07-17T11:11:19;2.90;;;2.60;;
7021;SDS011;3552;42.664;23.406;2022-07-17T11:13:47;4.47;;;3.10;;
7021;SDS011;3552;42.664;23.406;2022-07-17T11:16:26;3.20;;;2.90;;
7021;SDS011;3552;42.664;23.406;2022-07-17T11:18:54;3.60;;;2.80;;
7021;SDS011;3552;42.664;23.406;2022-07-17T11:21:21;4.40;;;2.87;;
7021;SDS011;3552;42.664;23.406;2022-07-17T11:23:51;3.63;;;2.60;;
7021;SDS011;3552;42.664;23.406;2022-07-17T11:26:20;5.40;;;2.67;;
7021;SDS011;3552;42.664;23.406;2022-07-17T11:28:50;3.00;;;2.47;;
7021;SDS011;3552;42.664;23.406;2022-07-17T11:31:18;4.73;;;2.67;;
7021;SDS011;3552;42.664;23.406;2022-07-17T11:33:51;4.17;;;3.00;;
7021;SDS011;3552;42.664;23.406;2022-07-17T11:36:23;4.20;;;2.90;;
7021;SDS011;3552;42.664;23.406;2022-07-17T11:38:55;4.30;;;2.80;;
7021;SDS011;3552;42.664;23.406;2022-07-17T11:41:32;6.47;;;2.87;;
7021;SDS011;3552;42.664;23.406;2022-07-17T11:44:01;3.47;;;2.77;;
7021;SDS011;3552;42.664;23.406;2022-07-17T11:46:29;3.50;;;2.70;;
7021;SDS011;3552;42.664;23.406;2022-07-17T11:48:58;3.10;;;2.70;;
7021;SDS011;3552;42.664;23.406;2022-07-17T11:51:34;4.77;;;2.83;;
7021;SDS011;3552;42.664;23.406;2022-07-17T11:54:04;4.03;;;2.87;;
7021;SDS011;3552;42.664;23.406;2022-07-17T11:56:33;3.20;;;2.60;;
7021;SDS011;3552;42.664;23.406;2022-07-17T11:59:02;3.10;;;2.70;;
7021;SDS011;3552;42.664;23.406;2022-07-17T12:01:29;5.20;;;2.70;;
7021;SDS011;3552;42.664;23.406;2022-07-17T12:04:06;3.97;;;3.07;;
7021;SDS011;3552;42.664;23.406;2022-07-17T12:06:34;7.97;;;2.87;;
7021;SDS011;3552;42.664;23.406;2022-07-17T12:09:01;5.03;;;2.57;;
7021;SDS011;3552;42.664;23.406;2022-07-17T12:11:30;3.87;;;2.73;;
7021;SDS011;3552;42.664;23.406;2022-07-17T12:14:02;4.67;;;3.10;;
7021;SDS011;3552;42.664;23.406;2022-07-17T12:16:31;3.20;;;2.90;;
7021;SDS011;3552;42.664;23.406;2022-07-17T12:19:03;6.87;;;3.13;;
7021;SDS011;3552;42.664;23.406;2022-07-17T12:21:46;4.10;;;3.00;;
7021;SDS011;3552;42.664;23.406;2022-07-17T12:24:18;3.57;;;2.70;;
7021;SDS011;3552;42.664;23.406;2022-07-17T12:26:49;5.17;;;2.70;;
7021;SDS011;3552;42.664;23.406;2022-07-17T12:29:18;3.53;;;2.67;;
7021;SDS011;3552;42.664;23.406;2022-07-17T12:31:46;4.70;;;2.67;;
7021;SDS011;3552;42.664;23.406;2022-07-17T12:34:14;4.27;;;2.97;;
7021;SDS011;3552;42.664;23.406;2022-07-17T12:36:41;4.50;;;2.90;;
7021;SDS011;3552;42.664;23.406;2022-07-17T12:39:08;8.77;;;3.10;;
7021;SDS011;3552;42.664;23.406;2022-07-17T12:41:36;4.50;;;2.90;;
7021;SDS011;3552;42.664;23.406;2022-07-17T12:44:06;3.43;;;2.77;;
7021;SDS011;3552;42.664;23.406;2022-07-17T12:46:34;3.90;;;2.90;;
7021;SDS011;3552;42.664;23.406;2022-07-17T12:49:01;5.13;;;3.03;;
7021;SDS011;3552;42.664;23.406;2022-07-17T12:51:28;3.70;;;2.63;;
7021;SDS011;3552;42.664;23.406;2022-07-17T12:53:56;5.33;;;2.90;;
7021;SDS011;3552;42.664;23.406;2022-07-17T12:56:31;3.40;;;3.10;;
7021;SDS011;3552;42.664;23.406;2022-07-17T12:59:01;3.23;;;2.80;;
7021;SDS011;3552;42.664;23.406;2022-07-17T13:01:31;4.50;;;3.03;;
7021;SDS011;3552;42.664;23.406;2022-07-17T13:03:59;3.90;;;2.90;;
7021;SDS011;3552;42.664;23.406;2022-07-17T13:06:28;2.63;;;2.43;;
7021;SDS011;3552;42.664;23.406;2022-07-17T13:08:59;3.90;;;2.90;;
7021;SDS011;3552;42.664;23.406;2022-07-17T13:11:26;5.07;;;3.53;;
7021;SDS011;3552;42.664;23.406;2022-07-17T13:14:03;4.03;;;3.13;;
7021;SDS011;3552;42.664;23.406;2022-07-17T13:16:34;4.53;;;2.70;;
7021;SDS011;3552;42.664;23.406;2022-07-17T13:19:02;3.73;;;3.03;;
7021;SDS011;3552;42.664;23.406;2022-07-17T13:21:30;8.57;;;3.37;;
7021;SDS011;3552;42.664;23.406;2022-07-17T13:23:58;5.63;;;2.90;;
7021;SDS011;3552;42.664;23.406;2022-07-17T13:26:29;3.83;;;3.00;;
7021;SDS011;3552;42.664;23.406;2022-07-17T13:28:56;3.20;;;2.70;;
7021;SDS011;3552;42.664;23.406;2022-07-17T13:31:30;4.60;;;2.80;;
7021;SDS011;3552;42.664;23.406;2022-07-17T13:34:02;3.23;;;3.03;;
7021;SDS011;3552;42.664;23.406;2022-07-17T13:36:29;3.30;;;2.73;;
7021;SDS011;3552;42.664;23.406;2022-07-17T13:38:57;3.63;;;3.00;;
7021;SDS011;3552;42.664;23.406;2022-07-17T13:41:26;5.47;;;2.87;;
7021;SDS011;3552;42.664;23.406;2022-07-17T13:43:54;4.07;;;2.80;;
7021;SDS011;3552;42.664;23.406;2022-07-17T13:46:21;3.60;;;2.83;;
7021;SDS011;3552;42.664;23.406;2022-07-17T13:48:49;5.90;;;2.93;;
7021;SDS011;3552;42.664;23.406;2022-07-17T13:51:19;3.67;;;2.93;;
7021;SDS011;3552;42.664;23.406;2022-07-17T13:53:48;7.73;;;3.37;;
7021;SDS011;3552;42.664;23.406;2022-07-17T13:56:20;3.17;;;2.87;;
7021;SDS011;3552;42.664;23.406;2022-07-17T13:58:51;3.67;;;3.20;;
7021;SDS011;3552;42.664;23.406;2022-07-17T14:01:18;4.40;;;3.57;;
7021;SDS011;3552;42.664;23.406;2022-07-17T14:03:46;6.37;;;2.80;;
7021;SDS011;3552;42.664;23.406;2022-07-17T14:06:13;4.27;;;3.10;;
7021;SDS011;3552;42.664;23.406;2022-07-17T14:08:44;3.00;;;2.70;;
7021;SDS011;3552;42.664;23.406;2022-07-17T14:11:11;7.37;;;3.23;;
7021;SDS011;3552;42.664;23.406;2022-07-17T14:13:39;3.80;;;2.80;;
7021;SDS011;3552;42.664;23.406;2022-07-17T14:16:07;6.80;;;2.90;;
7021;SDS011;3552;42.664;23.406;2022-07-17T14:18:35;4.83;;;3.37;;
7021;SDS011;3552;42.664;23.406;2022-07-17T14:21:24;3.70;;;3.17;;
7021;SDS011;3552;42.664;23.406;2022-07-17T14:23:53;4.90;;;3.20;;
7021;SDS011;3552;42.664;23.406;2022-07-17T14:26:21;5.87;;;3.30;;
7021;SDS011;3552;42.664;23.406;2022-07-17T14:28:48;4.10;;;3.20;;
7021;SDS011;3552;42.664;23.406;2022-07-17T14:31:16;4.60;;;3.20;;
7021;SDS011;3552;42.664;23.406;2022-07-17T14:33:43;3.47;;;3.07;;
7021;SDS011;3552;42.664;23.406;2022-07-17T14:36:11;3.17;;;2.60;;
7021;SDS011;3552;42.664;23.406;2022-07-17T14:38:38;5.67;;;3.10;;
7021;SDS011;3552;42.664;23.406;2022-07-17T14:41:08;3.00;;;2.70;;
7021;SDS011;3552;42.664;23.406;2022-07-17T14:43:36;4.93;;;2.83;;
7021;SDS011;3552;42.664;23.406;2022-07-17T14:46:03;3.23;;;2.97;;
7021;SDS011;3552;42.664;23.406;2022-07-17T14:48:31;3.47;;;2.87;;
7021;SDS011;3552;42.664;23.406;2022-07-17T14:51:01;4.60;;;3.10;;
7021;SDS011;3552;42.664;23.406;2022-07-17T14:53:30;5.03;;;2.83;;
7021;SDS011;3552;42.664;23.406;2022-07-17T14:55:58;4.23;;;2.77;;
7021;SDS011;3552;42.664;23.406;2022-07-17T14:58:30;3.37;;;2.70;;
7021;SDS011;3552;42.664;23.406;2022-07-17T15:00:57;7.47;;;3.20;;
7021;SDS011;3552;42.664;23.406;2022-07-17T15:03:30;4.00;;;3.50;;
7021;SDS011;3552;42.664;23.406;2022-07-17T15:05:58;5.87;;;3.37;;
7021;SDS011;3552;42.664;23.406;2022-07-17T15:08:34;8.07;;;4.00;;
7021;SDS011;3552;42.664;23.406;2022-07-17T15:11:04;5.57;;;4.87;;
7021;SDS011;3552;42.664;23.406;2022-07-17T15:13:38;4.03;;;3.40;;